createdAt,value
2023-02-22T00:01:36.178Z,7.79
2023-02-22T00:04:04.933Z,6.90
2023-02-22T00:06:32.138Z,6.61
2023-02-22T00:08:59.745Z,6.65
2023-02-22T00:11:26.890Z,6.56
2023-02-22T00:13:54.358Z,6.51
2023-02-22T00:16:22.786Z,6.96
2023-02-22T00:18:50.794Z,6.89
2023-02-22T00:21:18.539Z,6.66
2023-02-22T00:23:47.133Z,6.55
2023-02-22T00:26:15.725Z,6.78
2023-02-22T00:28:42.468Z,6.50
2023-02-22T00:31:09.121Z,6.98
2023-02-22T00:33:35.696Z,7.10
2023-02-22T00:36:02.505Z,6.71
2023-02-22T00:38:29.083Z,6.52
2023-02-22T00:40:55.796Z,6.88
2023-02-22T00:43:22.485Z,6.84
2023-02-22T00:45:49.179Z,7.05
2023-02-22T00:48:15.867Z,6.69
2023-02-22T00:50:42.570Z,7.05
2023-02-22T00:53:09.351Z,7.86
2023-02-22T00:55:37.721Z,8.21
2023-02-22T00:58:06.123Z,8.37
2023-02-22T01:00:36.231Z,8.15
2023-02-22T01:03:03.710Z,7.62
2023-02-22T01:05:31.567Z,7.46
2023-02-22T01:08:01.384Z,7.56
2023-02-22T01:10:30.041Z,7.41
2023-02-22T01:12:57.566Z,7.39
2023-02-22T01:15:26.151Z,7.14
2023-02-22T01:17:53.711Z,7.12
2023-02-22T01:20:22.553Z,7.21
2023-02-22T01:22:50.949Z,7.32
2023-02-22T01:25:20.429Z,7.05
2023-02-22T01:27:47.223Z,6.82
2023-02-22T01:30:15.345Z,6.98
2023-02-22T01:32:43.146Z,6.94
2023-02-22T01:35:13.705Z,6.62
2023-02-22T01:37:41.539Z,6.37
2023-02-22T01:40:10.703Z,6.19
2023-02-22T01:42:37.519Z,6.44
2023-02-22T01:45:32.123Z,6.40
2023-02-22T01:48:47.866Z,6.30
2023-02-22T01:51:21.390Z,6.39
2023-02-22T01:53:49.555Z,6.50
2023-02-22T01:56:18.776Z,6.63
2023-02-22T01:58:51.246Z,6.85
2023-02-22T02:01:20.501Z,6.66
2023-02-22T02:03:47.608Z,6.67
2023-02-22T02:06:15.728Z,6.76
2023-02-22T02:09:01.019Z,6.57
2023-02-22T02:11:28.520Z,6.82
2023-02-22T02:13:57.282Z,6.46
2023-02-22T02:16:31.981Z,6.88
2023-02-22T02:18:58.645Z,6.66
2023-02-22T02:21:42.833Z,6.45
2023-02-22T02:24:12.597Z,6.58
2023-02-22T02:26:57.449Z,6.26
2023-02-22T02:29:38.774Z,6.10
2023-02-22T02:32:42.690Z,6.14
2023-02-22T02:35:43.374Z,6.11
2023-02-22T02:38:33.749Z,6.39
2023-02-22T02:41:20.348Z,6.43
2023-02-22T02:44:05.496Z,6.61
2023-02-22T02:46:37.144Z,6.34
2023-02-22T02:49:15.713Z,6.29
2023-02-22T02:51:50.544Z,6.29
2023-02-22T02:54:19.509Z,6.27
2023-02-22T02:56:46.543Z,6.21
2023-02-22T02:59:32.994Z,6.29
2023-02-22T03:02:24.294Z,6.33
2023-02-22T03:05:09.447Z,6.43
2023-02-22T03:07:58.080Z,6.31
2023-02-22T03:10:35.040Z,6.34
2023-02-22T03:13:13.661Z,6.09
2023-02-22T03:15:43.253Z,6.18
2023-02-22T03:18:28.169Z,6.03
2023-02-22T03:21:22.555Z,6.07
2023-02-22T03:23:49.075Z,6.10
2023-02-22T03:26:23.658Z,6.10
2023-02-22T03:28:53.226Z,6.11
2023-02-22T03:31:31.469Z,6.07
2023-02-22T03:34:05.205Z,5.94
2023-02-22T03:36:39.834Z,5.88
2023-02-22T03:39:12.157Z,5.90
2023-02-22T03:41:40.616Z,5.94
2023-02-22T03:44:12.222Z,6.00
2023-02-22T03:46:41.258Z,5.99
2023-02-22T03:49:16.806Z,6.01
2023-02-22T03:51:43.505Z,5.94
2023-02-22T03:54:11.568Z,5.82
2023-02-22T03:57:03.555Z,5.60
2023-02-22T03:59:30.834Z,5.56
2023-02-22T04:01:58.030Z,5.43
2023-02-22T04:04:25.479Z,5.56
2023-02-22T04:06:52.625Z,5.80
2023-02-22T04:09:19.849Z,5.74
2023-02-22T04:11:47.143Z,5.59
2023-02-22T04:14:13.962Z,5.90
2023-02-22T04:16:40.526Z,5.48
2023-02-22T04:19:07.253Z,5.24
2023-02-22T04:21:33.898Z,5.30
2023-02-22T04:24:00.558Z,5.40
2023-02-22T04:26:27.311Z,5.48
2023-02-22T04:28:53.916Z,5.57
2023-02-22T04:31:20.827Z,5.59
2023-02-22T04:33:47.693Z,5.23
2023-02-22T04:36:14.447Z,5.54
2023-02-22T04:38:43.101Z,5.45
2023-02-22T04:41:09.731Z,5.43
2023-02-22T04:43:36.346Z,5.39
2023-02-22T04:46:02.982Z,5.58
2023-02-22T04:48:29.652Z,5.24
2023-02-22T04:50:56.327Z,5.05
2023-02-22T04:53:22.933Z,4.83
2023-02-22T04:55:49.559Z,4.84
2023-02-22T04:58:16.221Z,5.04
2023-02-22T05:00:42.837Z,5.33
2023-02-22T05:03:09.725Z,5.45
2023-02-22T05:05:36.456Z,5.49
2023-02-22T05:08:03.295Z,5.40
2023-02-22T05:10:29.913Z,5.40
2023-02-22T05:12:56.642Z,5.60
2023-02-22T05:15:23.746Z,5.60
2023-02-22T05:17:50.376Z,5.34
2023-02-22T05:20:29.675Z,5.10
2023-02-22T05:22:57.962Z,4.78
2023-02-22T05:25:25.447Z,4.77
2023-02-22T05:27:54.574Z,4.65
2023-02-22T05:30:28.577Z,4.51
2023-02-22T05:32:55.642Z,4.49
2023-02-22T05:35:23.294Z,4.39
2023-02-22T05:37:50.672Z,4.35
2023-02-22T05:40:21.970Z,4.51
2023-02-22T05:42:50.275Z,4.44
2023-02-22T05:45:19.694Z,4.59
2023-02-22T05:47:47.379Z,4.75
2023-02-22T05:50:15.570Z,4.75
2023-02-22T05:52:42.397Z,4.62
2023-02-22T05:55:11.071Z,4.70
2023-02-22T05:57:37.783Z,4.89
2023-02-22T06:00:06.637Z,5.01
2023-02-22T06:02:33.856Z,4.84
2023-02-22T06:05:00.617Z,4.71
2023-02-22T06:07:27.415Z,4.89
2023-02-22T06:09:54.020Z,4.90
2023-02-22T06:12:20.767Z,4.72
2023-02-22T06:14:47.400Z,4.74
2023-02-22T06:17:15.998Z,4.62
2023-02-22T06:19:42.689Z,4.50
2023-02-22T06:22:19.379Z,4.57
2023-02-22T06:24:46.025Z,4.52
2023-02-22T06:27:12.776Z,4.42
2023-02-22T06:29:39.395Z,4.48
2023-02-22T06:32:05.984Z,4.46
2023-02-22T06:34:32.691Z,4.44
2023-02-22T06:37:00.109Z,4.53
2023-02-22T06:39:26.797Z,4.57
2023-02-22T06:41:53.463Z,4.64
2023-02-22T06:44:20.106Z,4.52
2023-02-22T06:46:48.977Z,4.45
2023-02-22T06:49:15.573Z,4.52
2023-02-22T06:51:42.318Z,4.51
2023-02-22T06:54:08.956Z,4.44
2023-02-22T06:56:35.540Z,4.45
2023-02-22T06:59:02.840Z,4.55
2023-02-22T07:01:29.647Z,4.68
2023-02-22T07:03:56.860Z,4.79
2023-02-22T07:06:23.572Z,4.72
2023-02-22T07:08:50.200Z,4.93
2023-02-22T07:11:19.432Z,4.97
2023-02-22T07:13:46.251Z,4.98
2023-02-22T07:16:12.910Z,5.23
2023-02-22T07:18:39.537Z,5.28
2023-02-22T07:21:06.899Z,5.29
2023-02-22T07:23:33.835Z,5.45
2023-02-22T07:26:01.577Z,5.49
2023-02-22T07:28:28.328Z,5.52
2023-02-22T07:30:55.173Z,5.62
2023-02-22T07:33:21.836Z,5.80
2023-02-22T07:35:50.911Z,6.30
2023-02-22T07:38:19.551Z,6.50
2023-02-22T07:40:46.765Z,6.34
2023-02-22T07:43:17.778Z,6.21
2023-02-22T07:45:45.369Z,6.20
2023-02-22T07:48:13.094Z,6.17
2023-02-22T07:50:40.042Z,6.23
2023-02-22T07:53:11.991Z,6.26
2023-02-22T07:55:38.640Z,6.45
2023-02-22T07:58:07.360Z,6.56
2023-02-22T08:00:36.831Z,6.72
2023-02-22T08:03:06.416Z,6.83
2023-02-22T08:05:35.226Z,6.88
2023-02-22T08:08:01.964Z,7.01
2023-02-22T08:10:29.791Z,6.98
2023-02-22T08:12:56.498Z,7.10
2023-02-22T08:15:24.858Z,7.19
2023-02-22T08:17:51.997Z,7.28
2023-02-22T08:20:18.851Z,7.34
2023-02-22T08:22:46.622Z,7.45
2023-02-22T08:25:15.050Z,7.43
2023-02-22T08:27:42.163Z,7.49
2023-02-22T08:30:14.886Z,7.68
2023-02-22T08:32:41.547Z,7.94
2023-02-22T08:35:08.649Z,8.21
2023-02-22T08:37:35.340Z,8.58
2023-02-22T08:40:02.083Z,8.52
2023-02-22T08:42:28.721Z,8.59
2023-02-22T08:44:55.354Z,8.58
2023-02-22T08:47:22.002Z,8.58
2023-02-22T08:49:48.633Z,8.66
2023-02-22T08:52:15.273Z,8.90
2023-02-22T08:54:41.925Z,8.67
2023-02-22T08:57:08.576Z,8.68
2023-02-22T08:59:35.175Z,8.73
2023-02-22T09:02:01.873Z,8.99
2023-02-22T09:04:28.494Z,9.25
2023-02-22T09:06:55.438Z,9.41
2023-02-22T09:09:22.030Z,9.50
2023-02-22T09:11:50.483Z,9.37
2023-02-22T09:14:18.690Z,9.38
2023-02-22T09:16:45.390Z,9.65
2023-02-22T09:19:12.563Z,9.49
2023-02-22T09:21:39.664Z,9.60
2023-02-22T09:24:07.609Z,9.72
2023-02-22T09:26:38.345Z,9.76
2023-02-22T09:29:09.376Z,9.50
2023-02-22T09:31:37.525Z,9.76
2023-02-22T09:34:08.058Z,9.79
2023-02-22T09:36:34.691Z,9.69
2023-02-22T09:39:01.303Z,9.97
2023-02-22T09:41:43.847Z,10.30
2023-02-22T09:44:20.641Z,10.22
2023-02-22T09:46:49.652Z,10.40
2023-02-22T09:49:23.272Z,9.64
2023-02-22T09:52:00.253Z,10.15
2023-02-22T09:54:43.224Z,10.10
2023-02-22T09:57:16.276Z,10.26
2023-02-22T10:00:08.368Z,10.08
2023-02-22T10:02:44.405Z,10.50
2023-02-22T10:05:19.902Z,10.37
2023-02-22T10:08:00.585Z,10.61
2023-02-22T10:10:32.931Z,10.51
2023-02-22T10:13:05.348Z,10.57
2023-02-22T10:15:50.259Z,10.23
2023-02-22T10:18:32.020Z,10.60
2023-02-22T10:21:19.696Z,10.42
2023-02-22T10:23:59.296Z,10.51
2023-02-22T10:26:31.154Z,10.74
2023-02-22T10:29:20.309Z,11.14
2023-02-22T10:32:07.307Z,10.97
2023-02-22T10:34:40.728Z,11.08
2023-02-22T10:37:26.901Z,10.99
2023-02-22T10:39:59.388Z,11.16
2023-02-22T10:42:27.800Z,10.43
2023-02-22T10:44:54.647Z,10.82
2023-02-22T10:47:22.183Z,10.84
2023-02-22T10:56:11.141Z,11.01
2023-02-22T11:30:34.214Z,11.08
2023-02-22T11:33:00.834Z,11.36
2023-02-22T11:35:35.670Z,11.53
2023-02-22T11:38:22.658Z,10.97
2023-02-22T11:41:13.911Z,11.37
2023-02-22T11:43:41.939Z,11.63
2023-02-22T11:46:21.733Z,11.88
2023-02-22T11:48:57.741Z,11.22
2023-02-22T11:51:45.631Z,10.85
2023-02-22T11:54:18.172Z,11.03
2023-02-22T11:56:52.759Z,11.26
2023-02-22T12:00:08.737Z,11.45
2023-02-22T12:02:58.462Z,11.74
2023-02-22T12:05:53.777Z,10.91
2023-02-22T12:08:49.316Z,10.56
2023-02-22T12:11:39.407Z,10.66
2023-02-22T12:14:26.579Z,10.87
2023-02-22T12:17:02.150Z,10.94
2023-02-22T12:19:43.948Z,11.42
2023-02-22T12:22:20.619Z,11.58
2023-02-22T12:25:07.736Z,11.30
2023-02-22T12:27:48.156Z,11.20
2023-02-22T12:30:31.209Z,11.11
2023-02-22T12:33:06.500Z,11.22
2023-02-22T12:35:44.493Z,11.54
2023-02-22T12:38:28.582Z,11.34
2023-02-22T12:41:10.279Z,11.27
2023-02-22T12:43:56.363Z,11.64
2023-02-22T12:46:37.500Z,10.83
2023-02-22T12:49:24.418Z,11.19
2023-02-22T12:52:21.357Z,11.24
2023-02-22T12:55:02.168Z,11.18
2023-02-22T12:57:56.936Z,11.52
2023-02-22T13:00:23.499Z,11.52
2023-02-22T13:03:00.822Z,11.20
2023-02-22T13:05:34.908Z,11.36
2023-02-22T13:08:14.386Z,11.28
2023-02-22T13:11:06.864Z,11.18
2023-02-22T13:13:47.354Z,11.22
2023-02-22T13:16:32.260Z,11.25
2023-02-22T13:19:26.388Z,11.89
2023-02-22T13:21:54.892Z,11.58
2023-02-22T13:24:56.060Z,11.84
2023-02-22T13:27:46.752Z,11.94
2023-02-22T13:30:22.171Z,11.83
2023-02-22T13:32:48.730Z,11.63
2023-02-22T13:35:50.484Z,11.32
2023-02-22T13:38:38.307Z,11.40
2023-02-22T13:41:10.475Z,11.71
2023-02-22T13:44:16.450Z,11.87
2023-02-22T13:47:12.182Z,11.84
2023-02-22T13:49:56.845Z,11.09
2023-02-22T13:52:28.021Z,11.31
2023-02-22T13:55:07.737Z,11.54
2023-02-22T13:57:40.407Z,11.92
2023-02-22T14:00:16.235Z,12.03
2023-02-22T14:03:02.500Z,11.86
2023-02-22T14:05:42.456Z,11.83
2023-02-22T14:08:18.155Z,11.56
2023-02-22T14:10:56.968Z,11.36
2023-02-22T14:13:25.769Z,11.52
2023-02-22T14:15:58.462Z,11.03
2023-02-22T14:18:29.966Z,11.17
2023-02-22T14:21:08.248Z,11.42
2023-02-22T14:23:44.974Z,11.82
2023-02-22T14:26:18.108Z,11.20
2023-02-22T14:28:57.090Z,11.45
2023-02-22T14:31:36.001Z,11.46
2023-02-22T14:34:16.016Z,11.48
2023-02-22T14:36:51.343Z,11.51
2023-02-22T14:39:39.645Z,11.56
2023-02-22T14:42:14.166Z,10.95
2023-02-22T14:44:48.445Z,11.53
2023-02-22T14:47:21.391Z,11.69
2023-02-22T14:49:52.601Z,11.84
2023-02-22T14:52:27.190Z,11.75
2023-02-22T14:55:05.550Z,11.44
2023-02-22T14:57:45.110Z,11.65
2023-02-22T15:00:19.053Z,11.15
2023-02-22T15:02:50.868Z,11.31
2023-02-22T15:05:19.775Z,11.42
2023-02-22T15:07:59.180Z,11.47
2023-02-22T15:10:30.036Z,11.72
2023-02-22T15:13:03.398Z,11.17
2023-02-22T15:15:31.095Z,11.44
2023-02-22T15:17:58.622Z,11.34
2023-02-22T15:20:28.927Z,11.77
2023-02-22T15:23:00.052Z,11.73
2023-02-22T15:25:29.612Z,11.78
2023-02-22T15:28:02.736Z,11.60
2023-02-22T15:30:33.293Z,11.71
2023-02-22T15:33:18.077Z,11.62
2023-02-22T15:35:44.960Z,11.84
2023-02-22T15:38:11.620Z,11.90
2023-02-22T15:40:40.300Z,11.42
2023-02-22T15:43:07.785Z,10.88
2023-02-22T15:45:35.196Z,11.56
2023-02-22T15:48:01.971Z,11.69
2023-02-22T15:50:34.058Z,11.56
2023-02-22T15:53:03.315Z,11.42
2023-02-22T15:55:42.363Z,11.65
2023-02-22T15:58:15.046Z,11.49
2023-02-22T16:00:44.346Z,11.38
2023-02-22T16:03:21.190Z,11.64
2023-02-22T16:05:51.467Z,11.94
2023-02-22T16:08:25.077Z,11.49
2023-02-22T16:10:59.696Z,11.57
2023-02-22T16:13:32.423Z,11.46
2023-02-22T16:16:01.759Z,11.17
2023-02-22T16:18:34.516Z,10.96
2023-02-22T16:21:07.865Z,11.02
2023-02-22T16:23:47.414Z,10.91
2023-02-22T16:26:25.040Z,10.77
2023-02-22T16:29:00.303Z,10.52
2023-02-22T16:31:32.906Z,10.42
2023-02-22T16:34:00.940Z,10.42
2023-02-22T16:36:42.935Z,10.32
2023-02-22T16:39:31.927Z,10.21
2023-02-22T16:42:01.485Z,10.04
2023-02-22T16:44:29.197Z,9.96
2023-02-22T16:46:58.605Z,10.00
2023-02-22T16:49:25.904Z,10.00
2023-02-22T16:51:55.278Z,9.90
2023-02-22T16:54:44.221Z,9.80
2023-02-22T16:57:22.669Z,9.73
2023-02-22T16:59:50.595Z,9.94
2023-02-22T17:02:17.246Z,9.77
2023-02-22T17:04:44.087Z,9.83
2023-02-22T17:07:10.660Z,9.59
2023-02-22T17:09:37.354Z,9.46
2023-02-22T17:12:04.061Z,9.44
2023-02-22T17:14:34.039Z,9.46
2023-02-22T17:17:00.663Z,9.46
2023-02-22T17:19:27.730Z,9.40
2023-02-22T17:21:54.441Z,9.34
2023-02-22T17:24:23.520Z,9.40
2023-02-22T17:26:50.515Z,9.38
2023-02-22T17:29:17.102Z,9.29
2023-02-22T17:31:44.352Z,9.26
2023-02-22T17:34:11.060Z,9.26
2023-02-22T17:36:38.047Z,9.19
2023-02-22T17:39:05.501Z,9.31
2023-02-22T17:41:32.247Z,9.25
2023-02-22T17:43:59.577Z,9.18
2023-02-22T17:46:26.407Z,9.12
2023-02-22T17:48:53.624Z,9.11
2023-02-22T17:51:22.559Z,9.06
2023-02-22T17:53:49.165Z,8.90
2023-02-22T17:56:17.764Z,8.88
2023-02-22T17:58:49.693Z,8.89
2023-02-22T18:01:34.370Z,8.92
2023-02-22T18:04:03.481Z,8.86
2023-02-22T18:06:31.284Z,8.82
2023-02-22T18:08:59.618Z,8.87
2023-02-22T18:11:27.976Z,8.76
2023-02-22T18:13:58.657Z,8.68
2023-02-22T18:16:25.861Z,8.58
2023-02-22T18:18:53.791Z,8.49
2023-02-22T18:21:20.729Z,8.50
2023-02-22T18:23:47.564Z,8.33
2023-02-22T18:26:19.294Z,8.27
2023-02-22T18:28:46.398Z,8.27
2023-02-22T18:31:15.350Z,8.32
2023-02-22T18:33:47.310Z,7.88
2023-02-22T18:36:14.917Z,7.83
2023-02-22T18:38:43.549Z,7.81
2023-02-22T18:41:15.583Z,7.81
2023-02-22T18:43:43.127Z,7.97
2023-02-22T18:46:11.807Z,8.12
2023-02-22T18:48:39.244Z,8.24
2023-02-22T18:51:09.062Z,8.32
2023-02-22T18:53:37.540Z,8.31
2023-02-22T18:56:10.434Z,8.33
2023-02-22T18:58:37.419Z,8.13
2023-02-22T19:01:05.977Z,7.90
2023-02-22T19:03:32.816Z,7.86
2023-02-22T19:06:03.820Z,8.20
2023-02-22T19:08:30.470Z,8.00
2023-02-22T19:11:02.767Z,7.98
2023-02-22T19:13:29.409Z,7.84
2023-02-22T19:15:56.109Z,7.85
2023-02-22T19:18:22.730Z,7.90
2023-02-22T19:20:58.917Z,7.75
2023-02-22T19:23:25.591Z,7.89
2023-02-22T19:25:52.295Z,7.97
2023-02-22T19:28:19.213Z,7.88
2023-02-22T19:30:45.982Z,7.94
2023-02-22T19:33:12.700Z,7.91
2023-02-22T19:35:39.353Z,7.80
2023-02-22T19:38:06.002Z,7.78
2023-02-22T19:40:32.626Z,7.76
2023-02-22T19:42:59.215Z,7.69
2023-02-22T19:45:25.912Z,7.69
2023-02-22T19:47:56.916Z,7.78
2023-02-22T19:50:23.528Z,7.78
2023-02-22T19:52:50.201Z,7.90
2023-02-22T19:55:16.889Z,7.72
2023-02-22T19:57:45.327Z,7.57
2023-02-22T20:00:13.546Z,7.47
2023-02-22T20:02:41.472Z,7.56
2023-02-22T20:05:10.254Z,7.59
2023-02-22T20:07:37.293Z,7.71
2023-02-22T20:10:05.195Z,8.01
2023-02-22T20:12:31.925Z,7.87
2023-02-22T20:14:58.547Z,7.69
2023-02-22T20:17:26.092Z,7.85
2023-02-22T20:19:53.421Z,7.67
2023-02-22T20:22:21.291Z,7.43
2023-02-22T20:24:48.106Z,7.68
2023-02-22T20:27:17.898Z,7.83
2023-02-22T20:29:44.510Z,7.71
2023-02-22T20:32:13.155Z,7.57
2023-02-22T20:34:40.360Z,7.38
2023-02-22T20:37:06.959Z,7.51
2023-02-22T20:39:33.674Z,7.64
2023-02-22T20:42:00.373Z,8.03
2023-02-22T20:44:27.057Z,7.84
2023-02-22T20:46:53.700Z,7.62
2023-02-22T20:49:20.412Z,7.55
2023-02-22T20:51:48.307Z,7.72
2023-02-22T20:54:16.011Z,7.47
2023-02-22T20:56:44.430Z,7.46
2023-02-22T20:59:13.177Z,7.48
2023-02-22T21:01:40.214Z,7.67
2023-02-22T21:04:08.866Z,7.66
2023-02-22T21:06:37.837Z,7.66
2023-02-22T21:09:06.432Z,7.85
2023-02-22T21:11:33.579Z,7.65
2023-02-22T21:14:01.423Z,7.71
2023-02-22T21:16:34.131Z,7.49
2023-02-22T21:19:03.721Z,7.44
2023-02-22T21:21:30.500Z,7.34
2023-02-22T21:23:58.460Z,7.57
2023-02-22T21:26:27.639Z,7.35
2023-02-22T21:28:55.726Z,7.82
2023-02-22T21:31:24.381Z,8.07
2023-02-22T21:33:55.745Z,8.08
2023-02-22T21:36:23.216Z,8.57
2023-02-22T21:38:53.769Z,8.04
2023-02-22T21:41:22.617Z,7.99
2023-02-22T21:43:51.194Z,8.07
2023-02-22T21:46:18.243Z,7.98
2023-02-22T21:48:45.907Z,7.52
2023-02-22T21:51:15.636Z,7.63
2023-02-22T21:53:44.372Z,7.34
2023-02-22T21:56:11.127Z,7.34
2023-02-22T21:58:37.752Z,7.35
2023-02-22T22:01:06.377Z,7.49
2023-02-22T22:03:33.189Z,8.04
2023-02-22T22:05:59.827Z,7.86
2023-02-22T22:08:26.512Z,7.81
2023-02-22T22:10:56.470Z,7.74
2023-02-22T22:13:23.481Z,7.65
2023-02-22T22:15:50.171Z,7.26
2023-02-22T22:18:16.987Z,7.23
2023-02-22T22:20:44.266Z,7.47
2023-02-22T22:23:11.639Z,7.46
2023-02-22T22:25:38.721Z,7.26
2023-02-22T22:28:06.734Z,7.09
2023-02-22T22:30:36.368Z,7.22
2023-02-22T22:33:04.782Z,7.16
2023-02-22T22:35:32.745Z,7.17
2023-02-22T22:38:00.410Z,7.17
2023-02-22T22:40:27.750Z,6.90
2023-02-22T22:42:54.467Z,6.83
2023-02-22T22:45:21.057Z,6.98
2023-02-22T22:47:47.737Z,7.10
2023-02-22T22:50:16.495Z,7.03
2023-02-22T22:52:43.084Z,7.02
2023-02-22T22:55:09.868Z,7.35
2023-02-22T22:57:36.736Z,7.35
2023-02-22T23:00:05.796Z,7.43
2023-02-22T23:02:32.417Z,7.32
2023-02-22T23:04:59.069Z,7.06
2023-02-22T23:07:25.722Z,6.94
2023-02-22T23:09:52.463Z,6.95
2023-02-22T23:12:19.155Z,6.86
2023-02-22T23:14:45.811Z,6.75
2023-02-22T23:17:16.548Z,6.69
2023-02-22T23:19:44.841Z,7.15
2023-02-22T23:22:11.966Z,7.28
2023-02-22T23:24:38.712Z,7.25
2023-02-22T23:27:06.918Z,7.01
2023-02-22T23:29:37.643Z,7.04
2023-02-22T23:32:04.611Z,7.13
2023-02-22T23:34:32.477Z,6.99
2023-02-22T23:36:59.103Z,6.70
2023-02-22T23:39:25.952Z,6.84
2023-02-22T23:41:57.098Z,6.82
2023-02-22T23:44:23.715Z,6.70
2023-02-22T23:46:50.633Z,6.66
2023-02-22T23:49:17.385Z,6.92
2023-02-22T23:51:44.188Z,6.77
2023-02-22T23:54:13.517Z,6.62
2023-02-22T23:56:41.622Z,6.71
2023-02-22T23:59:08.250Z,6.80
